Time;durP1;ratioP1;P1;durP2;ratioP2;P2;SDS_P1;SDS_P2;PMS_P1;PMS_P2;Temp;Humidity;BMP_temperature;BMP_pressure;BME280_temperature;BME280_humidity;BME280_pressure;Samples;Min_cycle;Max_cycle;Signal;HPM_P1;HPM_P2
2023/03/01 00:02:02;;;;;;;2.35;2.25;;;;;;;-3.29;100.00;102607.13;6088497;23;20077;-77
2023/03/01 00:04:28;;;;;;;2.40;2.30;;;;;;;-2.62;100.00;102659.97;6068217;23;20079;-79
2023/03/01 00:06:55;;;;;;;2.83;2.72;;;;;;;-2.10;100.00;102722.56;6087699;23;20022;-79
2023/03/01 00:09:22;;;;;;;3.13;2.92;;;;;;;-2.66;100.00;102649.56;6066789;23;20020;-76
2023/03/01 00:11:48;;;;;;;2.42;2.33;;;;;;;-2.12;100.00;102706.19;6094848;23;20089;-76
2023/03/01 00:14:18;;;;;;;2.50;2.40;;;;;;;-1.96;100.00;102727.28;6098814;23;20026;-76
2023/03/01 00:16:45;;;;;;;2.55;2.45;;;;;;;-1.95;100.00;102740.19;6094215;23;20058;-76
2023/03/01 00:19:19;;;;;;;2.75;2.65;;;;;;;-3.58;100.00;102464.09;6091970;23;20035;-77
2023/03/01 00:21:46;;;;;;;3.58;3.28;;;;;;;-3.24;100.00;102515.75;6064541;23;20089;-76
2023/03/01 00:24:12;;;;;;;2.78;2.65;;;;;;;-2.82;100.00;102595.06;6089043;23;20068;-76
2023/03/01 00:26:40;;;;;;;2.50;2.40;;;;;;;-2.22;100.00;102693.88;6037925;23;20057;-76
2023/03/01 00:29:06;;;;;;;2.72;2.63;;;;;;;-3.55;100.00;102465.03;6084891;23;20038;-77
2023/03/01 00:31:33;;;;;;;2.75;2.65;;;;;;;-2.84;100.00;102573.59;6065432;23;20109;-77
2023/03/01 00:34:05;;;;;;;3.90;3.58;;;;;;;-1.97;100.00;102717.81;6085598;23;20138;-76
2023/03/01 00:36:34;;;;;;;2.60;2.50;;;;;;;-1.96;100.00;102706.69;6065442;23;20670;-77
2023/03/01 00:39:04;;;;;;;2.40;2.30;;;;;;;-2.01;100.00;102703.97;6089272;23;20540;-78
2023/03/01 00:41:30;;;;;;;2.83;2.65;;;;;;;-2.44;100.00;102646.88;6074624;23;20025;-78
2023/03/01 00:43:57;;;;;;;3.10;2.90;;;;;;;-2.90;100.00;102578.53;6091519;23;20030;-77
2023/03/01 00:46:26;;;;;;;2.92;2.75;;;;;;;-2.07;100.00;102704.63;6063725;23;20126;-77
2023/03/01 00:48:53;;;;;;;2.90;2.80;;;;;;;-4.43;100.00;102330.34;6058875;23;20026;-77
2023/03/01 00:51:23;;;;;;;2.70;2.60;;;;;;;-2.22;100.00;102686.16;6067935;23;20009;-77
2023/03/01 00:53:59;;;;;;;2.65;2.55;;;;;;;-2.67;100.00;102663.22;6088597;23;20087;-78
2023/03/01 00:56:26;;;;;;;2.30;2.20;;;;;;;-2.45;100.00;102678.53;6066634;23;20517;-78
2023/03/01 00:58:53;;;;;;;2.92;2.83;;;;;;;-3.15;100.00;102601.63;6041057;23;20038;-77
2023/03/01 01:01:23;;;;;;;2.70;2.60;;;;;;;-3.31;100.00;102548.84;6083453;23;20027;-76
2023/03/01 01:03:58;;;;;;;3.50;3.30;;;;;;;-2.58;100.00;102688.38;6089726;23;20052;-77
2023/03/01 01:06:28;;;;;;;3.08;2.97;;;;;;;-3.14;100.00;102609.38;6047921;23;20254;-77
2023/03/01 01:08:55;;;;;;;2.90;2.80;;;;;;;-2.63;100.00;102680.47;6079143;23;20036;-77
2023/03/01 01:11:24;;;;;;;3.22;3.03;;;;;;;-2.64;100.00;102677.06;6087258;23;20054;-80
2023/03/01 01:13:52;;;;;;;5.93;3.60;;;;;;;-3.02;100.00;102634.63;6092278;23;20025;-78
2023/03/01 01:16:21;;;;;;;3.00;2.90;;;;;;;-2.68;100.00;102661.47;6085928;23;20041;-77
2023/03/01 01:18:47;;;;;;;2.63;2.53;;;;;;;-4.43;100.00;102361.09;6034536;23;20159;-77
2023/03/01 01:21:16;;;;;;;2.55;2.45;;;;;;;-3.84;100.00;102480.31;6070848;23;20034;-77
2023/03/01 01:23:44;;;;;;;3.42;3.20;;;;;;;-3.63;100.00;102546.91;6078314;23;20103;-77
2023/03/01 01:26:15;;;;;;;2.70;2.60;;;;;;;-3.37;100.00;102585.44;6071688;23;20021;-77
2023/03/01 01:28:41;;;;;;;2.75;2.65;;;;;;;-3.92;100.00;102475.72;6088614;23;20459;-77
2023/03/01 01:31:08;;;;;;;3.03;2.92;;;;;;;-3.73;100.00;102508.03;6062157;23;20006;-78
2023/03/01 01:33:37;;;;;;;3.53;3.33;;;;;;;-2.94;100.00;102630.63;6091858;23;20042;-77
2023/03/01 01:36:07;;;;;;;2.83;2.72;;;;;;;-3.33;100.00;102563.34;6084617;23;20043;-77
2023/03/01 01:38:35;;;;;;;3.22;3.13;;;;;;;-3.76;100.00;102516.50;6062378;23;20032;-77
2023/03/01 01:41:02;;;;;;;2.65;2.55;;;;;;;-4.26;100.00;102405.28;6062358;23;20029;-77
2023/03/01 01:43:34;;;;;;;2.60;2.50;;;;;;;-4.18;100.00;102411.56;6033872;23;20037;-77
2023/03/01 01:46:14;;;;;;;3.47;3.28;;;;;;;-2.88;100.00;102615.41;6075865;23;20018;-76
2023/03/01 01:48:48;;;;;;;2.88;2.55;;;;;;;-2.97;100.00;102607.38;6094549;23;20846;-77
2023/03/01 01:51:23;;;;;;;3.08;2.88;;;;;;;-3.08;100.00;102601.03;6058757;23;20106;-78
2023/03/01 01:53:55;;;;;;;3.03;2.83;;;;;;;-4.86;100.00;102362.94;6077007;23;20120;-78
2023/03/01 01:56:23;;;;;;;2.75;2.65;;;;;;;-3.76;100.00;102493.41;6058493;23;20228;-77
2023/03/01 01:58:50;;;;;;;2.50;2.40;;;;;;;-3.22;100.00;102588.56;6081758;23;20137;-77
2023/03/01 02:01:17;;;;;;;2.85;2.75;;;;;;;-4.59;100.00;102371.59;6073632;23;20020;-76
2023/03/01 02:03:46;;;;;;;3.08;2.90;;;;;;;-3.29;100.00;102578.88;6079757;23;20044;-77
2023/03/01 02:06:28;;;;;;;2.97;2.80;;;;;;;-3.95;100.00;102465.34;6030181;23;20096;-77
2023/03/01 02:08:57;;;;;;;;;;;;;;;-3.23;100.00;102581.69;6056222;23;20030;-77
2023/03/01 02:11:25;;;;;;;2.40;2.30;;;;;;;-3.83;100.00;102496.56;6049682;23;20311;-76
2023/03/01 02:13:55;;;;;;;3.20;2.90;;;;;;;-4.79;100.00;102315.41;6081970;23;20032;-77
2023/03/01 02:16:21;;;;;;;2.75;2.65;;;;;;;-4.14;100.00;102430.50;6054500;23;20078;-77
2023/03/01 02:18:50;;;;;;;2.45;2.35;;;;;;;-4.04;100.00;102448.81;6053821;23;20119;-77
2023/03/01 02:21:47;;;;;;;2.50;2.40;;;;;;;-3.31;100.00;102575.41;6026159;23;20117;-77
2023/03/01 02:24:43;;;;;;;2.67;2.58;;;;;;;-3.36;100.00;102564.09;6075390;23;20038;-79
2023/03/01 02:27:10;;;;;;;2.60;2.50;;;;;;;-3.58;100.00;102528.25;6045314;23;20370;-79
2023/03/01 02:29:37;;;;;;;2.75;2.65;;;;;;;-3.38;100.00;102564.88;6079793;23;20441;-79
2023/03/01 02:32:04;;;;;;;2.40;2.30;;;;;;;-5.36;100.00;102248.41;6078139;23;20538;-79
2023/03/01 02:34:32;;;;;;;2.38;2.28;;;;;;;-4.69;100.00;102375.50;6060129;23;20052;-76
2023/03/01 02:37:08;;;;;;;2.90;2.72;;;;;;;-7.93;100.00;101908.75;6075106;23;20022;-76
2023/03/01 02:39:41;;;;;;;3.95;3.17;;;;;;;-3.38;100.00;102586.28;6047013;23;20034;-77
2023/03/01 02:42:12;;;;;;;2.97;2.78;;;;;;;-4.96;100.00;102314.75;6079534;23;20451;-77
2023/03/01 02:44:39;;;;;;;3.05;2.85;;;;;;;-5.32;100.00;102273.28;6055273;23;20051;-78
2023/03/01 02:47:05;;;;;;;3.13;2.92;;;;;;;-4.26;100.00;102467.66;6074473;23;20046;-77
2023/03/01 02:49:36;;;;;;;2.35;2.25;;;;;;;-3.55;100.00;102561.69;6049863;23;20569;-77
2023/03/01 02:52:18;;;;;;;2.10;2.00;;;;;;;-3.63;100.00;102564.88;6072867;23;20033;-78
2023/03/01 02:54:58;;;;;;;3.70;3.50;;;;;;;-3.79;100.00;102557.41;6080356;23;20356;-76
2023/03/01 02:57:27;;;;;;;3.20;3.00;;;;;;;-4.54;100.00;102405.97;6079344;23;20317;-77
2023/03/01 02:59:56;;;;;;;2.45;2.35;;;;;;;-3.74;100.00;102576.44;6083985;23;20095;-77
2023/03/01 03:02:40;;;;;;;2.40;2.30;;;;;;;-4.05;100.00;102498.38;6079199;23;20089;-78
2023/03/01 03:05:13;;;;;;;2.40;2.30;;;;;;;-4.49;100.00;102448.88;6092669;23;20035;-78
2023/03/01 03:07:42;;;;;;;3.08;2.78;;;;;;;-4.92;100.00;102365.25;6066966;23;20032;-77
2023/03/01 03:10:12;;;;;;;2.30;2.20;;;;;;;-3.90;100.00;102538.22;6082986;23;20108;-78
2023/03/01 03:12:39;;;;;;;2.70;2.60;;;;;;;-5.06;100.00;102345.94;6080795;23;20713;-77
2023/03/01 03:15:08;;;;;;;2.75;2.42;;;;;;;-3.94;100.00;102536.34;6064069;23;20048;-77
2023/03/01 03:17:36;;;;;;;3.75;3.33;;;;;;;-4.04;100.00;102525.75;6085213;23;20042;-77
2023/03/01 03:20:04;;;;;;;2.00;1.90;;;;;;;-5.62;100.00;102287.50;6096916;23;20045;-78
2023/03/01 03:22:33;;;;;;;2.22;2.13;;;;;;;-4.66;100.00;102439.66;6062613;23;20118;-77
2023/03/01 03:25:00;;;;;;;2.25;2.15;;;;;;;-4.59;100.00;102446.78;6087199;23;20022;-77
2023/03/01 03:27:28;;;;;;;2.40;2.30;;;;;;;-4.31;100.00;102471.75;6061449;23;20032;-76
2023/03/01 03:29:55;;;;;;;2.75;2.65;;;;;;;-5.28;100.00;102303.28;6090704;23;20725;-76
2023/03/01 03:32:21;;;;;;;2.60;2.50;;;;;;;-4.42;100.00;102448.28;6060636;23;20017;-76
2023/03/01 03:34:49;;;;;;;4.50;3.95;;;;;;;-4.65;100.00;102423.47;6092728;23;20505;-76
2023/03/01 03:40:01;;;;;;;3.83;3.53;;;;;;;-4.01;100.00;102518.19;6059946;23;20158;-78
2023/03/01 03:42:28;;;;;;;2.58;2.47;;;;;;;-4.14;100.00;102538.16;6059262;23;20531;-78
2023/03/01 03:44:55;;;;;;;2.50;2.40;;;;;;;-4.86;100.00;102380.00;6088507;23;20014;-76
2023/03/01 03:47:21;;;;;;;2.90;2.80;;;;;;;-5.45;100.00;102297.53;6072464;23;20270;-79
2023/03/01 03:49:47;;;;;;;2.30;2.20;;;;;;;-5.84;100.00;102216.72;6091353;23;20088;-77
2023/03/01 03:52:14;;;;;;;2.85;2.72;;;;;;;-7.33;100.00;101980.09;6072076;23;20258;-77
2023/03/01 03:54:40;;;;;;;2.55;2.45;;;;;;;-4.08;100.00;102503.38;6093416;23;20025;-80
2023/03/01 03:57:07;;;;;;;3.08;2.80;;;;;;;-4.65;100.00;102497.75;6086708;23;20026;-76
2023/03/01 03:59:33;;;;;;;2.50;2.40;;;;;;;-5.04;100.00;102369.91;6055485;23;20083;-76
2023/03/01 04:02:00;;;;;;;2.50;2.40;;;;;;;-5.26;100.00;102296.56;6084702;23;20072;-77
2023/03/01 04:04:26;;;;;;;2.95;2.75;;;;;;;-7.32;100.00;101962.28;6085614;23;20096;-76
2023/03/01 04:06:53;;;;;;;2.40;2.30;;;;;;;-5.12;100.00;102317.56;6084735;23;20190;-78
2023/03/01 04:09:19;;;;;;;2.45;2.35;;;;;;;-4.74;100.00;102380.47;6062720;23;20018;-78
2023/03/01 04:11:46;;;;;;;2.75;2.65;;;;;;;-6.56;100.00;102110.81;6092885;23;20625;-78
2023/03/01 04:14:12;;;;;;;2.28;2.17;;;;;;;-4.20;100.00;102477.28;6060416;23;20142;-78
2023/03/01 04:16:39;;;;;;;2.80;2.50;;;;;;;-4.56;100.00;102435.78;6087656;23;20652;-78
2023/03/01 04:19:06;;;;;;;2.40;2.30;;;;;;;-5.05;100.00;102363.03;6061434;23;20030;-77
2023/03/01 04:21:32;;;;;;;2.17;2.08;;;;;;;-5.62;100.00;102276.41;6088944;23;20148;-77
2023/03/01 04:23:59;;;;;;;3.65;2.58;;;;;;;-4.87;100.00;102421.75;6058054;23;20043;-77
2023/03/01 04:26:26;;;;;;;3.17;2.97;;;;;;;-5.97;100.00;102211.09;6062744;23;20138;-78
2023/03/01 04:28:53;;;;;;;2.33;2.22;;;;;;;-4.57;100.00;102473.34;6066298;23;20140;-77
2023/03/01 04:31:21;;;;;;;2.47;2.28;;;;;;;-4.47;100.00;102457.50;6056932;23;20316;-78
2023/03/01 04:33:55;;;;;;;2.78;2.63;;;;;;;-5.15;100.00;102335.34;6090928;23;20459;-76
2023/03/01 04:36:24;;;;;;;2.95;2.75;;;;;;;-4.91;100.00;102382.38;6087824;23;20069;-76
2023/03/01 04:38:51;;;;;;;2.20;2.10;;;;;;;-4.55;100.00;102425.59;6100797;23;20030;-77
2023/03/01 04:41:20;;;;;;;2.53;2.42;;;;;;;-4.33;100.00;102449.44;6065605;23;20083;-76
2023/03/01 04:43:46;;;;;;;2.55;2.45;;;;;;;-5.52;100.00;102257.16;6082320;23;20033;-77
2023/03/01 04:46:17;;;;;;;2.95;2.75;;;;;;;-4.34;100.00;102447.69;6093459;23;20112;-78
2023/03/01 04:48:44;;;;;;;2.10;2.00;;;;;;;-4.54;100.00;102418.75;6066110;23;20033;-77
2023/03/01 04:51:14;;;;;;;2.17;2.08;;;;;;;-5.87;100.00;102203.84;6055922;23;20013;-76
2023/03/01 04:53:41;;;;;;;2.20;2.10;;;;;;;-5.53;100.00;102242.63;6080157;23;20030;-76
2023/03/01 04:56:08;;;;;;;2.67;2.58;;;;;;;-6.00;100.00;102163.28;6083266;23;20038;-78
2023/03/01 04:58:35;;;;;;;3.00;2.90;;;;;;;-4.34;100.00;102452.81;6119958;18;20025;-76
2023/03/01 05:01:01;;;;;;;3.00;2.80;;;;;;;-4.42;100.00;102425.22;6037613;23;20009;-76
2023/03/01 05:03:28;;;;;;;2.47;2.38;;;;;;;-4.85;100.00;102343.31;6051935;23;20602;-75
2023/03/01 05:05:59;;;;;;;2.25;2.15;;;;;;;-4.64;100.00;102379.13;6107333;23;20467;-74
2023/03/01 05:08:26;;;;;;;2.55;2.45;;;;;;;-4.27;100.00;102434.28;6051014;23;20026;-74
2023/03/01 05:10:53;;;;;;;3.45;3.22;;;;;;;-4.27;100.00;102440.31;6108566;23;20025;-75
2023/03/01 05:13:21;;;;;;;2.72;2.60;;;;;;;-4.25;100.00;102432.63;6056786;23;20254;-74
2023/03/01 05:15:56;;;;;;;2.88;2.67;;;;;;;-4.37;100.00;102407.47;6101479;23;20026;-76
2023/03/01 05:18:25;;;;;;;2.95;2.85;;;;;;;-4.34;100.00;102406.69;6060941;23;20080;-74
2023/03/01 05:20:52;;;;;;;3.80;3.45;;;;;;;-5.66;100.00;102221.69;6100691;23;20025;-73
2023/03/01 05:23:19;;;;;;;2.90;2.70;;;;;;;-4.31;100.00;102420.50;6053664;23;20631;-76
2023/03/01 05:25:45;;;;;;;2.75;2.60;;;;;;;-4.24;100.00;102431.84;6108251;23;20303;-73
2023/03/01 05:28:12;;;;;;;2.83;2.63;;;;;;;-4.26;100.00;102425.78;6056068;23;20086;-74
2023/03/01 05:30:41;;;;;;;3.20;3.00;;;;;;;-4.27;100.00;102431.72;6103737;23;20037;-74
2023/03/01 05:33:13;;;;;;;3.20;2.97;;;;;;;-4.41;100.00;102409.03;6060702;23;20028;-74
2023/03/01 05:35:43;;;;;;;3.08;2.90;;;;;;;-4.79;100.00;102335.00;6085093;23;20033;-73
2023/03/01 05:38:14;;;;;;;2.53;2.42;;;;;;;-4.85;100.00;102323.72;6082769;23;20245;-75
2023/03/01 05:40:47;;;;;;;5.78;2.78;;;;;;;-4.24;100.00;102421.59;6082145;23;20333;-74
2023/03/01 05:43:14;;;;;;;;;;;;;;;-4.28;100.00;102417.16;6078599;23;20033;-74
2023/03/01 05:45:40;;;;;;;3.47;3.17;;;;;;;-5.06;100.00;102293.06;6048549;23;19968;-73
2023/03/01 05:48:08;;;;;;;2.53;2.40;;;;;;;-4.74;100.00;102343.75;6104842;23;20021;-75
2023/03/01 05:50:39;;;;;;;2.78;2.58;;;;;;;-4.48;100.00;102386.56;6055878;23;20080;-76
2023/03/01 05:53:10;;;;;;;2.70;2.60;;;;;;;-4.81;100.00;102337.53;6048151;23;20374;-74
2023/03/01 05:55:37;;;;;;;2.40;2.20;;;;;;;-4.49;100.00;102402.75;6079511;23;20050;-74
2023/03/01 05:58:06;;;;;;;2.25;2.15;;;;;;;-4.50;100.00;102398.44;6023590;23;20296;-75
2023/03/01 06:00:33;;;;;;;3.92;3.65;;;;;;;-4.48;100.00;102401.91;6082428;23;20030;-73
2023/03/01 06:03:00;;;;;;;2.65;2.45;;;;;;;-4.50;100.00;102411.25;6103919;23;20052;-73
2023/03/01 06:05:27;;;;;;;3.03;2.92;;;;;;;-4.59;100.00;102403.22;6058937;23;20042;-74
2023/03/01 06:07:54;;;;;;;3.28;2.90;;;;;;;-5.22;100.00;102322.31;6107910;23;20034;-75
2023/03/01 06:10:22;;;;;;;2.67;2.58;;;;;;;-4.93;100.00;102365.19;6084943;23;20640;-75
2023/03/01 06:12:48;;;;;;;2.22;2.13;;;;;;;-4.77;100.00;102405.97;6051529;23;20026;-73
2023/03/01 06:15:16;;;;;;;2.30;2.20;;;;;;;-4.76;100.00;102401.72;6107396;23;20041;-73
2023/03/01 06:17:44;;;;;;;2.90;2.75;;;;;;;-4.77;100.00;102405.06;6081814;23;20055;-74
2023/03/01 06:20:12;;;;;;;2.42;2.33;;;;;;;-4.87;100.00;102385.91;6022659;23;20084;-74
2023/03/01 06:22:39;;;;;;;2.67;2.58;;;;;;;-5.23;100.00;102343.63;6103919;23;20021;-73
2023/03/01 06:25:07;;;;;;;2.53;2.38;;;;;;;-5.39;100.00;102330.13;6080212;23;20041;-75
2023/03/01 06:27:33;;;;;;;2.55;2.45;;;;;;;-5.17;100.00;102390.72;6103986;23;20825;-75
2023/03/01 06:29:59;;;;;;;4.10;3.75;;;;;;;-5.03;100.00;102390.47;6079217;23;20022;-72
2023/03/01 06:32:26;;;;;;;2.67;2.58;;;;;;;-5.35;100.00;102343.13;6104130;23;20035;-73
2023/03/01 06:34:52;;;;;;;3.75;2.95;;;;;;;-5.79;100.00;102262.06;6078226;23;20046;-72
2023/03/01 06:37:19;;;;;;;2.67;2.58;;;;;;;-5.16;100.00;102367.75;6048732;23;20022;-74
2023/03/01 06:39:45;;;;;;;2.15;2.05;;;;;;;-5.58;100.00;102297.84;6077932;23;20042;-70
2023/03/01 06:42:12;;;;;;;3.67;3.38;;;;;;;-5.54;100.00;102297.16;6107277;23;20033;-73
2023/03/01 06:44:38;;;;;;;4.13;3.72;;;;;;;-4.95;100.00;102392.44;6063583;23;20568;-71
2023/03/01 06:47:04;;;;;;;4.68;3.17;;;;;;;-4.99;100.00;102378.66;6104565;23;20025;-71
2023/03/01 06:49:31;;;;;;;2.45;2.35;;;;;;;-5.16;100.00;102339.59;6077222;23;20049;-69
2023/03/01 06:51:57;;;;;;;3.30;3.00;;;;;;;-4.80;100.00;102398.16;6049198;23;20101;-71
2023/03/01 06:54:24;;;;;;;3.38;3.10;;;;;;;-5.13;100.00;102315.81;6105827;23;20033;-73
2023/03/01 06:56:50;;;;;;;2.67;2.58;;;;;;;-5.17;100.00;102293.47;6054923;23;20110;-75
2023/03/01 06:59:17;;;;;;;2.67;2.53;;;;;;;-4.55;100.00;102401.63;6103441;23;20033;-73
2023/03/01 07:01:46;;;;;;;2.60;2.50;;;;;;;-5.24;100.00;102290.66;6052306;23;20022;-71
2023/03/01 07:04:13;;;;;;;3.15;3.05;;;;;;;-5.07;100.00;102283.66;6023040;23;20080;-73
2023/03/01 07:06:39;;;;;;;3.10;3.00;;;;;;;-4.35;100.00;102394.69;6057269;23;20032;-71
2023/03/01 07:09:06;;;;;;;2.13;2.03;;;;;;;-4.28;100.00;102387.28;6106515;23;20150;-69
2023/03/01 07:11:33;;;;;;;2.30;2.20;;;;;;;-4.22;100.00;102382.38;6023660;23;20670;-71
2023/03/01 07:13:59;;;;;;;2.35;2.25;;;;;;;-4.12;100.00;102383.56;6101791;23;20025;-73
2023/03/01 07:16:26;;;;;;;3.08;2.88;;;;;;;-4.44;100.00;102333.72;6034531;23;20027;-72
2023/03/01 07:18:53;;;;;;;3.40;3.22;;;;;;;-3.99;100.00;102401.94;6081620;23;20050;-74
2023/03/01 07:21:19;;;;;;;3.50;3.30;;;;;;;-3.79;100.00;102407.75;6049845;23;20011;-70
2023/03/01 07:23:48;;;;;;;2.80;2.70;;;;;;;-4.08;100.00;102326.44;6104581;23;20480;-71
2023/03/01 07:26:15;;;;;;;2.13;2.03;;;;;;;-3.95;100.00;102314.91;6073004;23;20488;-72
2023/03/01 07:28:41;;;;;;;2.70;2.60;;;;;;;-3.43;100.00;102387.59;6075954;23;20547;-73
2023/03/01 07:31:08;;;;;;;2.45;2.35;;;;;;;-3.32;100.00;102383.69;6032950;23;20295;-69
2023/03/01 07:33:34;;;;;;;2.90;2.80;;;;;;;-3.52;100.00;102338.56;6103984;23;20659;-72
2023/03/01 07:36:03;;;;;;;3.03;2.88;;;;;;;-3.14;100.00;102380.84;6076095;23;20138;-74
2023/03/01 07:38:30;;;;;;;2.33;2.22;;;;;;;-3.93;100.00;102212.38;6049087;23;20445;-74
2023/03/01 07:41:01;;;;;;;3.05;2.85;;;;;;;-3.04;100.00;102366.59;6076475;23;22341;-70
2023/03/01 07:43:29;;;;;;;4.10;3.10;;;;;;;-2.74;100.00;102392.34;6075045;23;20025;-72
2023/03/01 07:46:02;;;;;;;3.00;2.90;;;;;;;-2.98;100.00;102329.94;6064182;23;20205;-73
2023/03/01 07:48:30;;;;;;;2.67;2.58;;;;;;;-2.51;100.00;102393.00;6109674;23;20285;-74
2023/03/01 07:51:04;;;;;;;3.20;3.00;;;;;;;-2.76;100.00;102350.31;6076426;23;20077;-71
2023/03/01 07:53:33;;;;;;;2.65;2.55;;;;;;;-2.32;100.00;102394.41;6046549;23;20097;-71
2023/03/01 07:56:09;;;;;;;2.22;2.13;;;;;;;-2.28;100.00;102390.22;6077151;23;20034;-71
2023/03/01 07:58:37;;;;;;;3.63;3.42;;;;;;;-2.08;100.00;102391.63;6052042;23;20058;-73
2023/03/01 08:01:09;;;;;;;4.45;4.15;;;;;;;-2.15;100.00;102358.84;6103620;23;20014;-71
2023/03/01 08:03:37;;;;;;;3.55;3.38;;;;;;;-1.81;100.00;102396.63;6053415;23;20049;-72
2023/03/01 08:06:05;;;;;;;3.90;3.70;;;;;;;-1.74;100.00;102377.09;6103436;23;20012;-71
2023/03/01 08:08:33;;;;;;;3.13;2.92;;;;;;;-2.13;100.00;102303.19;6056152;23;20394;-71
2023/03/01 08:11:04;;;;;;;3.47;3.28;;;;;;;-1.68;100.00;102359.22;6105195;23;20347;-70
2023/03/01 08:13:31;;;;;;;4.75;4.28;;;;;;;-1.48;100.00;102366.59;6080675;23;20033;-70
2023/03/01 08:16:06;;;;;;;3.35;3.15;;;;;;;-1.68;100.00;102302.59;6105198;23;20014;-74
2023/03/01 08:18:32;;;;;;;3.17;3.00;;;;;;;-1.14;100.00;102362.22;6079597;23;20105;-71
2023/03/01 08:21:13;;;;;;;3.78;3.55;;;;;;;-0.99;100.00;102370.28;6105516;23;20100;-72
2023/03/01 08:23:42;;;;;;;4.85;4.47;;;;;;;-0.94;99.28;102350.66;6079983;23;20183;-72
2023/03/01 08:26:12;;;;;;;3.67;3.47;;;;;;;-0.79;98.50;102364.72;6050496;23;20297;-72
2023/03/01 08:28:39;;;;;;;3.80;3.60;;;;;;;-0.81;97.61;102349.22;6101618;23;20041;-71
2023/03/01 08:31:22;;;;;;;2.63;2.53;;;;;;;-0.54;95.74;102363.50;6079689;23;20008;-70
2023/03/01 08:33:55;;;;;;;3.67;3.47;;;;;;;-0.85;94.04;102286.41;6105158;23;20520;-73
2023/03/01 08:36:29;;;;;;;3.25;3.05;;;;;;;-0.53;92.55;102305.94;6056796;23;20295;-72
2023/03/01 08:38:57;;;;;;;2.83;2.72;;;;;;;-0.19;89.76;102342.72;6109527;23;20084;-72
2023/03/01 08:41:24;;;;;;;2.95;2.85;;;;;;;-0.24;88.21;102299.63;6056788;23;20579;-72
2023/03/01 08:43:50;;;;;;;6.28;3.33;;;;;;;0.04;85.35;102320.78;6104998;23;20393;-73
2023/03/01 08:46:17;;;;;;;13.10;5.05;;;;;;;-0.54;83.61;102180.41;6058239;23;20079;-73
2023/03/01 08:48:43;;;;;;;6.22;3.47;;;;;;;-0.04;81.45;102234.59;6106307;23;20034;-73
2023/03/01 08:51:16;;;;;;;5.18;3.25;;;;;;;-0.12;80.88;102181.97;6079251;23;20025;-72
2023/03/01 08:53:46;;;;;;;3.92;3.00;;;;;;;0.47;79.92;102259.50;6104924;23;20033;-71
2023/03/01 08:56:13;;;;;;;3.70;3.50;;;;;;;0.56;78.91;102258.75;6077841;23;20085;-70
2023/03/01 08:58:43;;;;;;;3.42;3.20;;;;;;;0.59;77.44;102246.75;6047032;23;20034;-72
2023/03/01 09:01:12;;;;;;;3.40;3.20;;;;;;;0.70;77.15;102236.56;6078026;23;20237;-72
2023/03/01 09:03:39;;;;;;;3.83;3.25;;;;;;;0.65;76.90;102208.94;6052333;23;20033;-73
2023/03/01 09:06:07;;;;;;;4.15;3.75;;;;;;;0.86;76.10;102223.84;6078465;23;20009;-72
2023/03/01 09:08:39;;;;;;;3.13;3.00;;;;;;;0.99;75.80;102228.31;6079411;23;20033;-72
2023/03/01 09:11:07;;;;;;;5.95;5.03;;;;;;;1.11;74.98;102222.44;6049143;23;20022;-70
2023/03/01 09:13:33;;;;;;;3.67;3.33;;;;;;;0.54;74.95;102113.19;6079029;23;20288;-73
2023/03/01 09:16:03;;;;;;;3.25;3.05;;;;;;;1.32;74.40;102214.03;6098801;23;20109;-74
2023/03/01 09:18:29;;;;;;;5.25;4.72;;;;;;;1.02;73.46;102134.41;6056064;23;20034;-72
2023/03/01 09:21:06;;;;;;;3.70;3.47;;;;;;;1.58;72.23;102197.06;6076769;23;20025;-74
2023/03/01 09:23:36;;;;;;;3.70;3.50;;;;;;;1.75;72.23;102194.59;6028269;23;20046;-75
2023/03/01 09:26:03;;;;;;;3.88;3.67;;;;;;;2.01;70.55;102186.19;6078151;23;20236;-70
2023/03/01 09:28:29;;;;;;;4.85;4.13;;;;;;;2.08;67.51;102120.63;6062908;23;20543;-74
2023/03/01 09:30:59;;;;;;;4.40;4.03;;;;;;;2.18;66.61;102080.09;6099477;23;20018;-71
2023/03/01 09:33:27;;;;;;;5.93;4.75;;;;;;;2.31;64.82;102043.03;6074917;23;20020;-72
2023/03/01 09:36:02;;;;;;;4.15;3.85;;;;;;;2.39;64.26;102028.38;6048563;23;20430;-70
2023/03/01 09:38:29;;;;;;;6.20;5.68;;;;;;;1.48;63.45;101852.88;6075081;23;20021;-74
2023/03/01 09:41:20;;;;;;;4.63;4.20;;;;;;;2.25;63.60;101977.41;6100953;23;20399;-74
2023/03/01 09:44:04;;;;;;;3.80;3.58;;;;;;;2.49;63.53;101992.16;6025067;23;20046;-70
2023/03/01 09:46:40;;;;;;;3.72;3.50;;;;;;;2.50;62.59;101935.13;6106005;23;20690;-72
2023/03/01 09:49:30;;;;;;;4.53;4.32;;;;;;;2.89;61.96;101954.16;6079181;23;20277;-72
2023/03/01 09:52:19;;;;;;;5.03;4.63;;;;;;;2.96;60.76;101932.53;6053731;23;20238;-71
2023/03/01 09:54:46;;;;;;;5.15;4.72;;;;;;;3.02;59.56;101899.69;6102797;23;20349;-72
2023/03/01 09:57:26;;;;;;;5.32;4.55;;;;;;;2.96;59.80;101864.25;6030076;23;20234;-73
2023/03/01 10:00:11;;;;;;;5.82;4.65;;;;;;;3.00;59.83;101885.00;6076896;23;20036;-73
2023/03/01 10:03:03;;;;;;;3.85;3.65;;;;;;;3.33;60.41;101926.44;6046241;23;20033;-74
2023/03/01 10:05:49;;;;;;;6.72;5.10;;;;;;;3.20;59.97;101881.50;6022495;23;21719;-71
2023/03/01 10:08:29;;;;;;;4.03;3.83;;;;;;;3.25;59.18;101884.97;6048223;23;20030;-75
2023/03/01 10:10:55;;;;;;;4.22;3.70;;;;;;;3.42;59.01;101878.84;6073733;23;20046;-74
2023/03/01 10:13:31;;;;;;;4.22;3.85;;;;;;;3.54;58.31;101834.66;6021035;23;20023;-74
2023/03/01 10:16:13;;;;;;;4.93;4.20;;;;;;;3.08;56.09;101698.25;6020432;23;20015;-73
2023/03/01 10:18:41;;;;;;;4.30;3.90;;;;;;;2.90;55.69;101620.56;6078270;23;20049;-74
2023/03/01 10:21:15;;;;;;;5.82;4.85;;;;;;;3.15;56.34;101689.56;6049943;23;20253;-74
2023/03/01 10:23:43;;;;;;;5.07;4.70;;;;;;;3.89;56.37;101787.75;6073235;23;20109;-74
2023/03/01 10:26:16;;;;;;;4.28;3.97;;;;;;;4.03;54.63;101729.63;6023389;23;20025;-72
2023/03/01 10:28:43;;;;;;;6.65;4.57;;;;;;;4.11;54.45;101720.03;6076098;23;20111;-73
2023/03/01 10:31:20;;;;;;;4.78;4.30;;;;;;;3.79;53.55;101631.16;6052319;23;20440;-74
2023/03/01 10:33:47;;;;;;;5.22;4.22;;;;;;;3.62;54.33;101640.81;6070344;23;20421;-72
2023/03/01 10:36:14;;;;;;;6.28;5.15;;;;;;;3.87;54.75;101669.16;6033160;23;20107;-73
2023/03/01 10:39:14;;;;;;;5.97;5.57;;;;;;;3.98;55.23;101694.16;6049110;23;20647;-74
2023/03/01 10:41:54;;;;;;;5.38;4.95;;;;;;;4.18;53.32;101647.22;6024534;23;20026;-71
2023/03/01 10:44:41;;;;;;;6.40;5.13;;;;;;;4.49;53.51;101679.81;6078402;23;20523;-73
2023/03/01 10:47:21;;;;;;;6.07;5.13;;;;;;;4.56;53.72;101668.47;6026878;23;20050;-73
2023/03/01 10:49:55;;;;;;;4.93;4.63;;;;;;;4.32;53.47;101641.03;6078010;23;20056;-74
2023/03/01 10:52:26;;;;;;;6.72;6.13;;;;;;;4.14;54.57;101621.28;6019310;23;20055;-73
2023/03/01 10:54:59;;;;;;;7.97;5.97;;;;;;;4.62;53.68;101663.19;6047306;23;20042;-71
2023/03/01 10:57:36;;;;;;;4.55;4.25;;;;;;;4.46;53.98;101638.28;6021538;23;20288;-73
2023/03/01 11:00:12;;;;;;;4.53;4.22;;;;;;;4.47;54.26;101650.38;6076331;23;20045;-72
2023/03/01 11:02:39;;;;;;;4.75;4.40;;;;;;;4.28;52.43;101548.41;6104029;23;20041;-72
2023/03/01 11:05:23;;;;;;;4.68;4.35;;;;;;;4.54;52.06;101527.25;6079737;23;20077;-70
2023/03/01 11:07:53;;;;;;;6.30;5.05;;;;;;;4.70;51.10;101520.97;6051066;23;20609;-72
2023/03/01 11:10:26;;;;;;;6.47;5.95;;;;;;;3.95;51.81;101390.38;6067351;23;20496;-75
2023/03/01 11:12:54;;;;;;;5.85;5.45;;;;;;;4.77;51.87;101514.78;6048870;23;20018;-72
2023/03/01 11:15:29;;;;;;;5.43;5.03;;;;;;;4.56;51.73;101487.34;6081778;23;20112;-72
2023/03/01 11:17:56;;;;;;;5.25;4.80;;;;;;;4.02;52.00;101411.06;6076713;23;20033;-72
2023/03/01 11:20:41;;;;;;;6.32;5.25;;;;;;;4.00;51.40;101422.31;6105502;23;20041;-73
2023/03/01 11:23:13;;;;;;;5.90;5.30;;;;;;;4.93;51.66;101524.94;6049002;23;20314;-69
2023/03/01 11:25:42;;;;;;;6.30;5.80;;;;;;;4.85;50.26;101448.78;6024549;23;20114;-71
2023/03/01 11:28:14;;;;;;;8.20;6.22;;;;;;;4.79;49.83;101390.81;6052404;23;20084;-71
2023/03/01 11:30:40;;;;;;;5.22;4.88;;;;;;;5.46;50.86;101510.19;6078496;23;20106;-71
2023/03/01 11:33:34;;;;;;;6.38;5.60;;;;;;;5.47;50.51;101478.09;6061197;23;20097;-72
2023/03/01 11:36:15;;;;;;;5.70;5.30;;;;;;;5.03;49.28;101344.41;6099694;23;20075;-74
2023/03/01 11:38:43;;;;;;;6.00;5.45;;;;;;;5.49;48.66;101390.41;6050363;23;20018;-73